Terminal Aerodrome Forecast
Issued by NWS Des Moines, IA

Home | Current Version | Previous Version | Text Only | Print | Product List | Glossary On
Versions: 1 2 3 4 5 6 7 8 9 10 11 12 13 14 15 16 17 18 19 20 21 22 23 24 25 26 27 28 29 30 31
000
FTUS43 KDMX 061120
TAFDSM
TAF
KDSM 061120Z 0612/0712 17011KT P6SM VCTS SCT025 BKN040CB
      TEMPO 0612/0614 1SM -TSRA SCT015 BKN025CB
     FM061500 19012KT P6SM SCT035 BKN100
     FM062000 24014KT P6SM VCTS SCT010 BKN025CB
     FM070000 34014KT P6SM SCT035=

USA.gov is the U.S. government's official web portal to all federal, state and local government web resources and services.